Time;durP1;ratioP1;P1;durP2;ratioP2;P2;SDS_P1;SDS_P2;PMS_P1;PMS_P2;Temp;Humidity;BMP_temperature;BMP_pressure;BME280_temperature;BME280_humidity;BME280_pressure;Samples;Min_cycle;Max_cycle;Signal;HPM_P1;HPM_P2
2023/08/04 00:02:13;;;;;;;11.10;4.70;;;16.90;99.90;;;;;;5095900;28;20534;-69
2023/08/04 00:04:41;;;;;;;9.20;4.90;;;16.90;99.90;;;;;;5093858;28;20986;-69
2023/08/04 00:07:11;;;;;;;8.87;4.90;;;16.90;99.90;;;;;;5095017;28;20414;-69
2023/08/04 00:09:39;;;;;;;8.40;4.63;;;16.90;99.90;;;;;;5094781;28;20464;-69
2023/08/04 00:12:07;;;;;;;9.90;4.73;;;16.90;99.90;;;;;;5095292;28;20861;-69
2023/08/04 00:14:36;;;;;;;8.30;4.17;;;16.90;99.90;;;;;;5094985;28;20505;-69
2023/08/04 00:17:04;;;;;;;9.10;4.47;;;16.90;99.90;;;;;;5094704;28;20418;-69
2023/08/04 00:19:32;;;;;;;9.10;4.53;;;16.80;99.90;;;;;;5093952;28;20437;-68
2023/08/04 00:22:00;;;;;;;6.83;4.83;;;16.80;99.90;;;;;;5095017;28;20471;-69
2023/08/04 00:24:30;;;;;;;5.70;4.57;;;16.80;99.90;;;;;;5095684;28;20439;-68
2023/08/04 00:26:58;;;;;;;7.20;4.30;;;16.90;99.90;;;;;;5093602;28;20433;-69
2023/08/04 00:29:26;;;;;;;5.80;4.03;;;16.90;99.90;;;;;;5094335;28;20439;-68
2023/08/04 00:31:55;;;;;;;7.70;4.40;;;16.90;99.90;;;;;;5094238;28;20439;-68
2023/08/04 00:34:24;;;;;;;9.40;5.50;;;16.90;99.90;;;;;;5094639;28;20941;-69
2023/08/04 00:36:52;;;;;;;6.63;4.77;;;16.90;99.90;;;;;;5094182;28;20529;-69
2023/08/04 00:39:20;;;;;;;7.83;4.87;;;16.80;99.90;;;;;;5092850;28;20514;-69
2023/08/04 00:41:50;;;;;;;8.37;5.13;;;16.90;99.90;;;;;;5092921;28;20778;-69
2023/08/04 00:44:18;;;;;;;6.13;4.63;;;16.80;99.90;;;;;;5094202;28;20502;-69
2023/08/04 00:46:47;;;;;;;6.07;4.53;;;16.80;99.90;;;;;;5093069;28;21057;-69
2023/08/04 00:49:16;;;;;;;8.23;4.80;;;16.80;99.90;;;;;;5094349;28;20521;-69
2023/08/04 00:51:45;;;;;;;8.07;4.43;;;16.90;99.90;;;;;;5092765;28;20494;-69
2023/08/04 00:54:14;;;;;;;8.43;4.80;;;16.80;99.90;;;;;;5094693;28;20452;-68
2023/08/04 00:56:42;;;;;;;11.67;5.97;;;16.80;99.90;;;;;;5094340;28;20979;-68
2023/08/04 00:59:12;;;;;;;7.00;4.53;;;16.80;99.90;;;;;;5092769;28;20443;-68
2023/08/04 01:01:40;;;;;;;10.57;5.40;;;16.80;99.90;;;;;;5094207;28;20438;-69
2023/08/04 01:04:08;;;;;;;7.77;4.80;;;16.80;99.90;;;;;;5095154;28;20452;-69
2023/08/04 01:06:48;;;;;;;10.40;5.30;;;16.80;99.90;;;;;;5092464;28;20480;-69
2023/08/04 01:09:42;;;;;;;7.80;5.77;;;16.80;99.90;;;;;;5092572;28;20555;-68
2023/08/04 01:12:16;;;;;;;8.70;5.70;;;16.80;99.90;;;;;;5094348;28;20395;-69
2023/08/04 01:14:48;;;;;;;9.10;5.40;;;16.70;99.90;;;;;;5094201;28;20399;-68
2023/08/04 01:17:23;;;;;;;9.40;5.80;;;16.70;99.90;;;;;;5092345;28;20485;-69
2023/08/04 01:19:51;;;;;;;14.43;5.80;;;16.70;99.90;;;;;;5093283;28;20443;-69
2023/08/04 01:22:22;;;;;;;10.93;5.70;;;16.70;99.90;;;;;;5092344;28;20430;-69
2023/08/04 01:24:51;;;;;;;10.60;6.80;;;16.60;99.90;;;;;;5094828;28;20475;-69
2023/08/04 01:27:25;;;;;;;10.23;6.20;;;16.70;99.90;;;;;;5093505;28;20437;-69
2023/08/04 01:29:53;;;;;;;9.57;6.17;;;16.60;99.90;;;;;;5092049;28;20870;-68
2023/08/04 01:32:21;;;;;;;7.67;5.60;;;16.60;99.90;;;;;;5092002;28;20435;-69
2023/08/04 01:34:50;;;;;;;11.70;5.57;;;16.60;99.90;;;;;;5092271;28;20546;-69
2023/08/04 01:37:18;;;;;;;6.23;5.63;;;16.60;99.90;;;;;;5093289;28;20421;-69
2023/08/04 01:39:47;;;;;;;11.70;6.80;;;16.60;99.90;;;;;;5091873;28;20429;-69
2023/08/04 01:42:15;;;;;;;9.47;5.90;;;16.60;99.90;;;;;;5092034;28;20845;-69
2023/08/04 01:44:44;;;;;;;8.97;7.20;;;16.50;99.90;;;;;;5093781;28;20437;-69
2023/08/04 01:47:12;;;;;;;10.20;6.27;;;16.50;99.90;;;;;;5092000;28;20484;-69
2023/08/04 01:49:40;;;;;;;9.60;5.97;;;16.50;99.90;;;;;;5091850;28;20468;-69
2023/08/04 01:52:08;;;;;;;7.37;5.97;;;16.50;99.90;;;;;;5091869;28;20415;-69
2023/08/04 01:54:36;;;;;;;10.00;6.53;;;16.50;99.90;;;;;;5091917;28;20443;-68
2023/08/04 01:57:06;;;;;;;9.27;6.43;;;16.50;99.90;;;;;;5091889;28;20419;-68
2023/08/04 01:59:34;;;;;;;10.80;6.33;;;16.50;99.90;;;;;;5093166;28;20461;-68
2023/08/04 02:02:02;;;;;;;13.03;6.63;;;16.50;99.90;;;;;;5091845;28;20415;-69
2023/08/04 02:04:30;;;;;;;10.00;6.50;;;16.50;99.90;;;;;;5093136;28;20407;-68
2023/08/04 02:06:59;;;;;;;13.23;6.20;;;16.50;99.90;;;;;;5091774;28;20427;-68
2023/08/04 02:09:27;;;;;;;8.83;6.87;;;16.40;99.90;;;;;;5093005;28;20449;-69
2023/08/04 02:11:57;;;;;;;18.33;6.70;;;16.40;99.90;;;;;;5091746;28;20856;-69
2023/08/04 02:14:28;;;;;;;9.90;5.30;;;16.40;99.90;;;;;;5093052;28;20406;-69
2023/08/04 02:16:56;;;;;;;6.87;5.93;;;16.40;99.90;;;;;;5091804;28;20499;-68
2023/08/04 02:19:24;;;;;;;9.00;5.53;;;16.40;99.90;;;;;;5091716;28;20415;-69
2023/08/04 02:21:52;;;;;;;13.73;5.77;;;16.40;99.90;;;;;;5091645;28;20450;-69
2023/08/04 02:24:21;;;;;;;10.90;5.33;;;16.40;99.90;;;;;;5091736;28;20419;-68
2023/08/04 02:26:49;;;;;;;9.97;5.10;;;16.50;99.90;;;;;;5091654;28;20457;-68
2023/08/04 02:29:17;;;;;;;8.63;5.60;;;16.40;99.90;;;;;;5092755;28;20445;-69
2023/08/04 02:31:46;;;;;;;7.30;5.50;;;16.40;99.90;;;;;;5091564;28;20493;-69
2023/08/04 02:34:16;;;;;;;7.63;5.50;;;16.50;99.90;;;;;;5091504;28;20460;-68
2023/08/04 02:36:44;;;;;;;7.10;4.90;;;16.50;99.90;;;;;;5091539;28;20438;-68
2023/08/04 02:39:12;;;;;;;9.90;6.50;;;16.50;99.90;;;;;;5092853;28;20430;-69
2023/08/04 02:41:41;;;;;;;9.30;5.10;;;16.50;99.90;;;;;;5093812;28;20417;-68
2023/08/04 02:44:09;;;;;;;9.90;5.43;;;16.50;99.90;;;;;;5096985;28;20475;-68
2023/08/04 02:46:37;;;;;;;9.90;5.50;;;16.50;99.90;;;;;;5095211;28;20482;-69
2023/08/04 02:49:07;;;;;;;9.00;4.97;;;16.50;99.90;;;;;;5096480;28;20468;-69
2023/08/04 02:51:35;;;;;;;9.73;5.53;;;16.50;99.90;;;;;;5094945;28;20521;-69
2023/08/04 02:54:03;;;;;;;6.53;5.70;;;16.50;99.90;;;;;;5094832;28;20441;-68
2023/08/04 02:56:31;;;;;;;6.37;5.20;;;16.50;99.90;;;;;;5094808;28;20849;-69
2023/08/04 02:58:59;;;;;;;7.30;5.00;;;16.50;99.90;;;;;;5095126;28;20436;-69
2023/08/04 03:01:28;;;;;;;6.27;5.07;;;16.50;99.90;;;;;;5096118;28;20502;-68
2023/08/04 03:03:56;;;;;;;8.63;5.40;;;16.50;99.90;;;;;;5094691;28;20485;-69
2023/08/04 03:06:26;;;;;;;7.40;4.50;;;16.50;99.90;;;;;;5094812;28;20452;-68
2023/08/04 03:08:54;;;;;;;7.83;4.70;;;16.50;99.90;;;;;;5096363;28;20564;-69
2023/08/04 03:11:22;;;;;;;8.20;4.87;;;16.50;99.90;;;;;;5095916;28;20467;-69
2023/08/04 03:13:50;;;;;;;7.10;5.00;;;16.50;99.90;;;;;;5095758;28;20522;-69
2023/08/04 03:16:17;;;;;;;9.87;5.20;;;16.50;99.90;;;;;;5094501;28;20445;-69
2023/08/04 03:18:45;;;;;;;7.10;4.70;;;16.50;99.90;;;;;;5095782;28;20418;-69
2023/08/04 03:21:14;;;;;;;10.30;5.70;;;16.50;99.90;;;;;;5095661;28;20407;-69
2023/08/04 03:23:43;;;;;;;8.13;5.40;;;16.50;99.90;;;;;;5095615;28;20439;-69
2023/08/04 03:26:11;;;;;;;6.17;4.73;;;16.50;99.90;;;;;;5095598;28;20444;-69
2023/08/04 03:28:39;;;;;;;10.00;4.67;;;16.50;99.90;;;;;;5095732;28;20539;-68
2023/08/04 03:31:07;;;;;;;6.37;4.30;;;16.50;99.90;;;;;;5094239;28;20546;-69
2023/08/04 03:33:36;;;;;;;10.30;5.70;;;16.50;99.90;;;;;;5095357;28;20433;-68
2023/08/04 03:36:04;;;;;;;7.33;4.70;;;16.50;99.90;;;;;;5095675;28;20450;-69
2023/08/04 03:38:33;;;;;;;7.00;5.17;;;16.50;99.90;;;;;;5095561;28;20406;-69
2023/08/04 03:41:02;;;;;;;11.70;4.70;;;16.50;99.90;;;;;;5094040;28;20415;-68
2023/08/04 03:43:30;;;;;;;10.60;4.53;;;16.50;99.90;;;;;;5095119;28;20452;-69
2023/08/04 03:45:58;;;;;;;7.50;4.50;;;16.40;99.90;;;;;;5093865;28;20514;-69
2023/08/04 03:48:26;;;;;;;6.77;4.90;;;16.50;99.90;;;;;;5095187;28;20410;-69
2023/08/04 03:50:54;;;;;;;8.50;4.77;;;16.50;99.90;;;;;;5095120;28;20478;-69
2023/08/04 03:53:22;;;;;;;7.67;4.47;;;16.50;99.90;;;;;;5094052;28;20469;-68
2023/08/04 03:55:51;;;;;;;13.80;5.83;;;16.50;99.90;;;;;;5095591;28;20611;-68
2023/08/04 03:58:20;;;;;;;8.17;5.20;;;16.50;99.90;;;;;;5094921;28;21012;-68
2023/08/04 04:00:48;;;;;;;8.87;5.00;;;16.50;99.90;;;;;;5095206;28;20533;-68
2023/08/04 04:03:16;;;;;;;7.13;4.97;;;16.50;99.90;;;;;;5094806;28;20496;-69
2023/08/04 04:05:44;;;;;;;8.17;5.67;;;16.50;99.90;;;;;;5093538;28;20455;-69
2023/08/04 04:08:12;;;;;;;7.80;4.73;;;16.50;99.90;;;;;;5094753;28;20432;-68
2023/08/04 04:10:40;;;;;;;10.37;6.10;;;16.40;99.90;;;;;;5094936;28;20880;-69
2023/08/04 04:13:08;;;;;;;8.27;6.37;;;16.50;99.90;;;;;;5094596;28;20988;-68
2023/08/04 04:15:38;;;;;;;8.50;5.40;;;16.40;99.90;;;;;;5094671;28;20407;-69
2023/08/04 04:18:06;;;;;;;9.30;6.13;;;16.40;99.90;;;;;;5094769;28;20441;-69
2023/08/04 04:20:34;;;;;;;10.73;5.33;;;16.40;99.90;;;;;;5094819;28;20436;-68
2023/08/04 04:23:02;;;;;;;9.20;5.93;;;16.40;99.90;;;;;;5094654;28;20484;-68
2023/08/04 04:25:30;;;;;;;8.37;5.50;;;16.40;99.90;;;;;;5093243;28;20806;-68
2023/08/04 04:27:58;;;;;;;15.20;5.87;;;16.40;99.90;;;;;;5093099;28;20534;-68
2023/08/04 04:30:27;;;;;;;7.57;5.60;;;16.40;99.90;;;;;;5094434;28;20519;-68
2023/08/04 04:32:56;;;;;;;7.13;4.87;;;16.40;99.90;;;;;;5094270;28;20448;-68
2023/08/04 04:35:24;;;;;;;10.90;7.07;;;16.40;99.90;;;;;;5093133;28;20785;-68
2023/08/04 04:37:53;;;;;;;7.97;6.13;;;16.40;99.90;;;;;;5094227;28;20494;-68
2023/08/04 04:40:21;;;;;;;9.53;5.57;;;16.40;99.90;;;;;;5094083;28;20418;-69
2023/08/04 04:42:49;;;;;;;8.13;5.77;;;16.40;99.90;;;;;;5094194;28;20434;-68
2023/08/04 04:45:17;;;;;;;8.33;6.00;;;16.40;99.90;;;;;;5094128;28;20850;-68
2023/08/04 04:47:45;;;;;;;9.70;5.73;;;16.40;99.90;;;;;;5092754;28;20468;-68
2023/08/04 04:50:15;;;;;;;6.77;5.37;;;16.40;99.90;;;;;;5093962;28;20439;-68
2023/08/04 04:52:43;;;;;;;8.70;5.30;;;16.40;99.90;;;;;;5093888;28;20430;-68
2023/08/04 04:55:11;;;;;;;7.73;6.33;;;16.40;99.90;;;;;;5093939;28;20813;-68
2023/08/04 04:57:40;;;;;;;8.60;5.80;;;16.40;99.90;;;;;;5094104;28;20445;-69
2023/08/04 05:00:09;;;;;;;7.33;5.30;;;16.40;99.90;;;;;;5093892;28;20400;-68
2023/08/04 05:02:37;;;;;;;8.70;5.60;;;16.40;99.90;;;;;;5093726;28;20444;-69
2023/08/04 05:05:06;;;;;;;11.67;5.60;;;16.40;99.90;;;;;;5092227;28;20476;-68
2023/08/04 05:07:36;;;;;;;8.57;6.20;;;16.40;99.90;;;;;;5092513;28;20430;-68
2023/08/04 05:10:04;;;;;;;10.97;5.43;;;16.40;99.90;;;;;;5093856;28;20963;-68
2023/08/04 05:12:33;;;;;;;12.37;5.67;;;16.40;99.90;;;;;;5093581;28;20547;-68
2023/08/04 05:15:01;;;;;;;8.27;5.53;;;16.40;99.90;;;;;;5092287;28;21044;-68
2023/08/04 05:17:29;;;;;;;6.90;5.07;;;16.40;99.90;;;;;;5093546;28;20957;-68
2023/08/04 05:19:57;;;;;;;7.07;5.93;;;16.50;99.90;;;;;;5093799;28;20415;-68
2023/08/04 05:22:25;;;;;;;7.33;5.67;;;16.50;99.90;;;;;;5093755;28;20440;-68
2023/08/04 05:24:54;;;;;;;10.60;5.53;;;16.50;99.90;;;;;;5093777;28;20465;-68
2023/08/04 05:27:38;;;;;;;8.93;6.13;;;16.50;99.90;;;;;;5093829;28;20413;-68
2023/08/04 05:30:07;;;;;;;7.67;5.30;;;16.50;99.90;;;;;;5093535;28;20407;-68
2023/08/04 05:32:35;;;;;;;5.67;4.77;;;16.50;99.90;;;;;;5092074;28;20847;-68
2023/08/04 05:35:04;;;;;;;6.23;5.37;;;16.50;99.90;;;;;;5093648;28;20437;-68
2023/08/04 05:37:33;;;;;;;7.00;5.10;;;16.50;99.90;;;;;;5093446;28;20411;-68
2023/08/04 05:40:03;;;;;;;7.17;5.30;;;16.50;99.90;;;;;;5093334;28;20451;-68
2023/08/04 05:42:31;;;;;;;5.80;4.63;;;16.50;99.90;;;;;;5093451;28;20927;-69
2023/08/04 05:44:59;;;;;;;5.43;4.60;;;16.60;99.90;;;;;;5093606;28;20532;-68
2023/08/04 05:47:27;;;;;;;7.03;4.80;;;16.60;99.90;;;;;;5093282;28;20413;-69
2023/08/04 05:49:55;;;;;;;5.47;4.90;;;16.60;99.90;;;;;;5093150;28;20415;-68
2023/08/04 05:52:23;;;;;;;6.00;4.10;;;16.60;99.90;;;;;;5093140;28;20967;-68
2023/08/04 05:54:54;;;;;;;8.93;5.60;;;16.60;99.90;;;;;;5093200;28;20403;-68
2023/08/04 05:57:24;;;;;;;5.20;4.57;;;16.60;99.90;;;;;;5093189;28;20486;-68
2023/08/04 05:59:52;;;;;;;6.60;4.10;;;16.60;99.90;;;;;;5091914;28;20466;-69
2023/08/04 06:02:20;;;;;;;9.17;5.20;;;16.60;99.90;;;;;;5093078;28;20984;-68
2023/08/04 06:04:48;;;;;;;8.20;4.40;;;16.60;99.90;;;;;;5092118;28;20841;-68
2023/08/04 06:07:16;;;;;;;8.63;5.10;;;16.60;99.90;;;;;;5093083;28;20419;-68
2023/08/04 06:09:44;;;;;;;8.30;4.90;;;16.60;99.90;;;;;;5093025;28;20434;-68
2023/08/04 06:12:12;;;;;;;8.13;4.83;;;16.60;99.90;;;;;;5092863;28;20478;-69
2023/08/04 06:14:43;;;;;;;6.17;4.53;;;16.60;99.90;;;;;;5093367;28;20823;-69
2023/08/04 06:17:11;;;;;;;7.13;4.97;;;16.70;99.90;;;;;;5094656;28;20395;-68
2023/08/04 06:19:40;;;;;;;6.10;4.23;;;16.70;99.90;;;;;;5097656;28;20403;-68
2023/08/04 06:22:08;;;;;;;6.73;4.53;;;16.70;99.90;;;;;;5097035;28;20493;-69
2023/08/04 06:24:36;;;;;;;10.53;4.17;;;16.70;99.90;;;;;;5097485;28;20402;-69
2023/08/04 06:27:05;;;;;;;5.83;3.90;;;16.70;99.90;;;;;;5096804;28;20440;-68
2023/08/04 06:29:33;;;;;;;7.87;4.43;;;16.80;99.90;;;;;;5096594;28;20940;-68
2023/08/04 06:32:04;;;;;;;8.00;4.70;;;16.80;99.90;;;;;;5096698;28;20469;-69
2023/08/04 06:34:32;;;;;;;5.53;4.20;;;16.80;99.90;;;;;;5096635;28;20941;-69
2023/08/04 06:37:00;;;;;;;6.30;4.10;;;16.90;99.90;;;;;;5096667;28;20436;-69
2023/08/04 06:39:29;;;;;;;8.90;4.77;;;16.90;99.90;;;;;;5096431;28;20851;-69
2023/08/04 06:41:57;;;;;;;8.77;4.67;;;16.90;99.90;;;;;;5095118;28;20785;-69
2023/08/04 06:44:25;;;;;;;7.40;4.77;;;17.00;99.90;;;;;;5096955;28;20414;-69
2023/08/04 06:46:53;;;;;;;6.43;3.50;;;17.00;99.90;;;;;;5096890;28;20820;-69
2023/08/04 06:49:22;;;;;;;6.20;4.07;;;17.00;99.90;;;;;;5096860;28;20403;-69
2023/08/04 06:51:50;;;;;;;5.53;4.90;;;17.10;99.90;;;;;;5096851;28;21051;-69
2023/08/04 06:54:19;;;;;;;5.90;4.30;;;17.10;99.90;;;;;;5096289;28;20885;-69
2023/08/04 06:56:47;;;;;;;5.83;4.33;;;17.20;99.90;;;;;;5094999;28;20419;-69
2023/08/04 06:59:15;;;;;;;5.67;4.23;;;17.20;99.90;;;;;;5096588;28;20941;-69
2023/08/04 07:01:44;;;;;;;7.07;4.30;;;17.30;99.90;;;;;;5096783;28;20535;-69
2023/08/04 07:04:12;;;;;;;5.70;4.17;;;17.30;99.90;;;;;;5096042;28;20773;-69
2023/08/04 07:06:42;;;;;;;5.00;3.87;;;17.30;99.90;;;;;;5096870;28;20832;-68
2023/08/04 07:09:10;;;;;;;6.80;3.83;;;17.40;99.90;;;;;;5096157;28;20924;-68
2023/08/04 07:11:38;;;;;;;4.07;3.60;;;17.40;99.90;;;;;;5096216;28;20443;-68
2023/08/04 07:14:06;;;;;;;5.53;3.20;;;17.40;99.90;;;;;;5096197;28;20498;-68
2023/08/04 07:16:35;;;;;;;3.80;3.00;;;17.50;99.90;;;;;;5096093;28;20514;-68
2023/08/04 07:19:03;;;;;;;3.97;3.00;;;17.50;99.90;;;;;;5095907;28;20903;-69
2023/08/04 07:21:31;;;;;;;4.03;2.90;;;17.50;99.90;;;;;;5095890;28;20515;-69
2023/08/04 07:24:01;;;;;;;8.40;3.67;;;17.50;99.90;;;;;;5096005;28;20460;-68
2023/08/04 07:26:30;;;;;;;3.87;3.17;;;17.50;99.90;;;;;;5095823;28;21006;-69
2023/08/04 07:28:58;;;;;;;3.30;3.00;;;17.50;99.90;;;;;;5094410;28;20443;-69
2023/08/04 07:31:26;;;;;;;5.17;3.47;;;17.60;99.90;;;;;;5095779;28;20567;-69
2023/08/04 07:33:55;;;;;;;4.57;2.83;;;17.60;99.90;;;;;;5095620;28;20426;-68
2023/08/04 07:36:23;;;;;;;5.13;3.17;;;17.60;99.90;;;;;;5095966;28;20422;-69
2023/08/04 07:38:51;;;;;;;5.07;3.40;;;17.70;99.90;;;;;;5095231;28;20490;-69
2023/08/04 07:41:22;;;;;;;5.57;3.03;;;17.80;99.90;;;;;;5094423;28;20526;-69
2023/08/04 07:43:50;;;;;;;5.27;3.17;;;17.90;99.90;;;;;;5095509;28;20456;-69
2023/08/04 07:46:20;;;;;;;3.30;3.00;;;18.00;99.90;;;;;;5095314;28;20514;-68
2023/08/04 07:48:50;;;;;;;4.33;3.60;;;18.10;99.90;;;;;;5095275;28;20417;-69
2023/08/04 07:51:19;;;;;;;6.80;3.10;;;18.10;99.90;;;;;;5095681;28;20464;-68
2023/08/04 07:53:47;;;;;;;7.33;3.30;;;18.20;99.90;;;;;;5093896;28;20430;-68
2023/08/04 07:56:15;;;;;;;5.30;3.20;;;18.20;99.90;;;;;;5093939;28;20499;-69
2023/08/04 07:58:46;;;;;;;5.43;3.23;;;18.20;99.90;;;;;;5095052;28;20428;-68
2023/08/04 08:01:15;;;;;;;4.20;3.03;;;18.40;99.90;;;;;;5095211;28;20482;-68
2023/08/04 08:03:44;;;;;;;4.17;2.87;;;18.60;99.90;;;;;;5095198;28;20444;-69
2023/08/04 08:06:12;;;;;;;4.43;2.93;;;18.70;99.90;;;;;;5094939;28;20436;-68
2023/08/04 08:08:40;;;;;;;5.00;2.60;;;18.80;99.90;;;;;;5095387;28;20933;-68
2023/08/04 08:11:09;;;;;;;3.10;2.50;;;18.90;99.90;;;;;;5093594;28;20451;-68
2023/08/04 08:13:38;;;;;;;2.90;2.03;;;19.00;99.90;;;;;;5094627;28;20976;-69
2023/08/04 08:16:12;;;;;;;3.40;2.47;;;19.00;99.90;;;;;;5094781;28;20936;-69
2023/08/04 08:18:44;;;;;;;3.23;2.67;;;19.00;99.90;;;;;;5095299;28;20420;-68
2023/08/04 08:21:14;;;;;;;3.13;2.30;;;19.00;99.90;;;;;;5095344;28;20475;-69
2023/08/04 08:23:42;;;;;;;5.77;2.97;;;19.00;99.90;;;;;;5094698;28;20464;-69
2023/08/04 08:26:10;;;;;;;3.00;2.30;;;19.00;99.90;;;;;;5093417;28;20466;-68
2023/08/04 08:28:38;;;;;;;5.30;2.70;;;19.10;99.90;;;;;;5094767;28;20535;-69
2023/08/04 08:31:06;;;;;;;3.33;2.10;;;19.20;99.90;;;;;;5093146;28;20449;-69
2023/08/04 08:33:36;;;;;;;3.60;2.97;;;19.20;99.90;;;;;;5094357;28;20475;-69
2023/08/04 08:36:06;;;;;;;5.03;2.60;;;19.40;99.90;;;;;;5095029;28;20840;-68
2023/08/04 08:38:34;;;;;;;3.17;2.47;;;19.50;99.90;;;;;;5094450;28;20444;-69
2023/08/04 08:41:03;;;;;;;4.00;2.03;;;19.50;99.90;;;;;;5093932;28;20774;-69
2023/08/04 08:43:31;;;;;;;2.27;1.97;;;19.50;99.90;;;;;;5094438;28;20513;-68
2023/08/04 08:45:59;;;;;;;2.80;1.57;;;19.50;99.90;;;;;;5094279;28;20432;-68
2023/08/04 08:48:30;;;;;;;1.63;1.30;;;19.50;99.90;;;;;;5094428;28;20433;-68
2023/08/04 08:51:03;;;;;;;3.70;1.60;;;19.50;99.90;;;;;;5094250;28;20427;-68
2023/08/04 08:53:32;;;;;;;4.53;1.70;;;19.50;99.90;;;;;;5094218;28;20479;-69
2023/08/04 08:56:01;;;;;;;1.97;1.30;;;19.50;99.90;;;;;;5094052;28;20515;-69
2023/08/04 08:58:31;;;;;;;3.10;1.60;;;19.50;99.90;;;;;;5094650;28;20448;-68
2023/08/04 09:01:00;;;;;;;1.73;1.20;;;19.40;99.90;;;;;;5094065;28;20917;-68
2023/08/04 09:03:29;;;;;;;1.73;1.20;;;19.50;99.90;;;;;;5094024;28;20547;-70
2023/08/04 09:05:57;;;;;;;2.40;1.30;;;19.50;99.90;;;;;;5094660;28;20436;-68
2023/08/04 09:08:27;;;;;;;1.33;0.90;;;19.50;99.90;;;;;;5093995;28;20437;-69
2023/08/04 09:10:55;;;;;;;1.50;1.00;;;19.50;99.90;;;;;;5093382;28;20437;-69
2023/08/04 09:13:24;;;;;;;1.97;1.20;;;19.50;99.90;;;;;;5094343;28;20895;-69
2023/08/04 09:15:54;;;;;;;1.40;1.07;;;19.60;99.90;;;;;;5094618;28;20439;-69
2023/08/04 09:18:27;;;;;;;1.93;1.20;;;19.70;99.90;;;;;;5094721;28;20527;-69
2023/08/04 09:21:00;;;;;;;1.90;1.10;;;19.70;99.90;;;;;;5094875;28;20447;-69
2023/08/04 09:23:36;;;;;;;1.80;1.17;;;19.80;99.90;;;;;;5095045;28;20937;-69
2023/08/04 09:26:04;;;;;;;1.60;1.03;;;19.80;99.90;;;;;;5095093;28;20820;-69
2023/08/04 09:28:32;;;;;;;1.60;1.07;;;19.90;99.90;;;;;;5094513;28;20464;-69
2023/08/04 09:31:05;;;;;;;2.23;1.17;;;19.90;99.90;;;;;;5094844;28;20535;-69
2023/08/04 09:33:34;;;;;;;1.50;1.00;;;20.00;99.90;;;;;;5094595;28;20964;-69
2023/08/04 09:36:04;;;;;;;2.00;1.30;;;20.00;99.90;;;;;;5094299;28;20790;-69
2023/08/04 09:38:34;;;;;;;1.40;1.13;;;20.00;99.90;;;;;;5094869;28;20539;-69
2023/08/04 09:41:05;;;;;;;1.20;0.80;;;20.10;99.90;;;;;;5094598;28;20427;-69
2023/08/04 09:43:33;;;;;;;1.53;0.80;;;20.10;99.90;;;;;;5093394;28;20924;-69
2023/08/04 09:46:04;;;;;;;1.70;1.00;;;20.20;99.90;;;;;;5094558;28;20495;-69
2023/08/04 09:48:33;;;;;;;1.30;0.80;;;20.20;99.90;;;;;;5094764;28;20447;-69
2023/08/04 09:51:09;;;;;;;1.70;1.10;;;20.20;99.90;;;;;;5094320;28;20460;-69
2023/08/04 09:53:43;;;;;;;1.50;1.30;;;20.30;99.90;;;;;;5098213;28;20521;-69
2023/08/04 09:56:12;;;;;;;1.77;1.43;;;20.30;99.90;;;;;;5098793;28;20423;-69
2023/08/04 09:58:41;;;;;;;2.00;1.13;;;20.30;99.90;;;;;;5097168;28;20448;-70
2023/08/04 10:01:09;;;;;;;1.80;0.97;;;20.30;99.90;;;;;;5098423;28;20821;-69
2023/08/04 10:03:40;;;;;;;3.07;1.90;;;20.40;99.90;;;;;;5097991;28;20451;-69
2023/08/04 10:06:09;;;;;;;2.93;1.50;;;20.50;99.90;;;;;;5098733;28;20420;-69
2023/08/04 10:08:40;;;;;;;2.30;1.47;;;20.60;99.90;;;;;;5098228;28;20531;-69
2023/08/04 10:11:10;;;;;;;1.70;1.30;;;20.50;99.90;;;;;;5097996;28;20424;-70
2023/08/04 10:13:41;;;;;;;1.80;1.30;;;20.60;99.90;;;;;;5097791;28;20548;-70
2023/08/04 10:16:13;;;;;;;2.53;1.73;;;20.60;99.90;;;;;;5097962;28;20421;-69
2023/08/04 10:18:50;;;;;;;2.47;1.50;;;20.70;99.90;;;;;;5098005;28;20421;-69
2023/08/04 10:21:21;;;;;;;1.47;1.37;;;20.70;99.90;;;;;;5098753;28;20503;-69
2023/08/04 10:23:52;;;;;;;2.73;1.70;;;20.70;99.90;;;;;;5098057;28;20465;-70
2023/08/04 10:26:21;;;;;;;2.23;1.43;;;20.80;99.90;;;;;;5097795;28;20424;-69
2023/08/04 10:29:07;;;;;;;3.80;1.60;;;20.80;99.90;;;;;;5097764;28;20440;-70
2023/08/04 10:31:51;;;;;;;2.13;1.53;;;20.80;99.90;;;;;;5095399;28;20463;-70
2023/08/04 10:34:26;;;;;;;2.07;1.70;;;20.90;99.90;;;;;;5096802;28;20555;-70
2023/08/04 10:37:01;;;;;;;2.20;1.70;;;21.00;99.90;;;;;;5096944;28;20416;-70
2023/08/04 10:39:32;;;;;;;2.00;1.33;;;21.10;99.90;;;;;;5096614;28;20948;-70
2023/08/04 10:42:04;;;;;;;2.80;1.63;;;21.10;99.90;;;;;;5095279;28;20432;-70
2023/08/04 10:44:48;;;;;;;2.47;1.90;;;21.20;99.90;;;;;;5096609;28;20459;-70
2023/08/04 10:47:28;;;;;;;3.30;1.70;;;21.20;99.90;;;;;;5096758;28;20423;-70
2023/08/04 10:49:58;;;;;;;2.20;1.60;;;21.30;99.90;;;;;;5096421;28;20420;-70
2023/08/04 10:52:27;;;;;;;2.50;1.80;;;21.30;99.90;;;;;;5096394;28;20866;-70
2023/08/04 10:54:56;;;;;;;6.73;1.93;;;21.30;99.90;;;;;;5096163;28;20555;-70
2023/08/04 10:57:28;;;;;;;3.63;1.97;;;21.20;99.90;;;;;;5096249;28;20834;-70
2023/08/04 10:59:56;;;;;;;3.20;1.90;;;21.20;99.90;;;;;;5096821;28;20770;-70
2023/08/04 11:02:26;;;;;;;5.97;1.70;;;21.30;99.90;;;;;;5095491;28;20460;-70
2023/08/04 11:04:55;;;;;;;3.73;1.40;;;21.30;99.90;;;;;;5096134;28;20481;-70
2023/08/04 11:07:25;;;;;;;2.60;1.77;;;21.30;99.90;;;;;;5096039;28;20801;-70
2023/08/04 11:09:54;;;;;;;2.20;1.60;;;21.40;99.90;;;;;;5096248;28;20486;-70
2023/08/04 11:12:24;;;;;;;2.87;1.97;;;21.50;99.90;;;;;;5094574;28;20503;-70
2023/08/04 11:14:57;;;;;;;2.40;1.63;;;21.50;99.90;;;;;;5095799;28;20468;-70
2023/08/04 11:17:26;;;;;;;3.40;1.90;;;21.50;99.90;;;;;;5096153;28;20821;-70
2023/08/04 11:19:55;;;;;;;2.73;1.70;;;21.50;99.90;;;;;;5096150;28;20925;-70
2023/08/04 11:22:24;;;;;;;3.23;1.57;;;21.60;99.90;;;;;;5094421;28;20467;-70
2023/08/04 11:24:53;;;;;;;1.70;1.60;;;21.60;99.90;;;;;;5094450;28;20796;-70
2023/08/04 11:27:23;;;;;;;2.03;1.40;;;21.70;99.90;;;;;;5095804;28;20472;-70
2023/08/04 11:29:55;;;;;;;1.40;1.30;;;21.70;99.90;;;;;;5095598;28;20843;-70
2023/08/04 11:32:25;;;;;;;2.23;1.77;;;21.60;99.90;;;;;;5095829;28;20863;-70
2023/08/04 11:34:55;;;;;;;3.00;1.60;;;21.60;99.90;;;;;;5095635;28;20819;-70
2023/08/04 11:37:24;;;;;;;3.00;1.57;;;21.60;99.90;;;;;;5095729;28;20751;-70
2023/08/04 11:39:52;;;;;;;1.90;1.63;;;21.70;99.90;;;;;;5095720;28;20455;-70
2023/08/04 11:42:27;;;;;;;2.20;1.50;;;21.70;99.90;;;;;;5095789;28;20448;-70
2023/08/04 11:44:55;;;;;;;4.90;1.77;;;21.80;99.90;;;;;;5095328;28;20446;-69
2023/08/04 11:47:25;;;;;;;2.57;1.73;;;21.90;99.90;;;;;;5095776;28;20486;-70
2023/08/04 11:49:54;;;;;;;2.87;1.60;;;21.90;99.90;;;;;;5095845;28;20439;-70
2023/08/04 11:52:23;;;;;;;5.27;1.67;;;21.90;99.90;;;;;;5095335;28;20460;-70
2023/08/04 11:54:53;;;;;;;3.47;1.50;;;21.90;99.90;;;;;;5093720;28;20521;-70
2023/08/04 11:57:22;;;;;;;4.00;1.73;;;21.90;99.90;;;;;;5095337;28;20792;-70
2023/08/04 11:59:52;;;;;;;3.27;1.90;;;21.90;99.90;;;;;;5094177;28;20454;-70
2023/08/04 12:02:22;;;;;;;2.63;2.00;;;21.90;99.90;;;;;;5095002;28;20534;-70
2023/08/04 12:05:06;;;;;;;2.57;1.40;;;22.00;99.90;;;;;;5095197;28;20434;-70
2023/08/04 12:07:35;;;;;;;2.53;1.80;;;22.10;99.90;;;;;;5094887;28;20777;-70
2023/08/04 12:10:05;;;;;;;2.57;1.67;;;22.10;99.90;;;;;;5093523;28;20440;-70
2023/08/04 12:12:37;;;;;;;2.97;1.77;;;22.20;99.90;;;;;;5095116;28;20460;-70
2023/08/04 12:15:08;;;;;;;2.80;1.67;;;22.20;99.90;;;;;;5094197;28;20464;-70
2023/08/04 12:17:38;;;;;;;4.60;1.80;;;22.20;99.90;;;;;;5094741;28;20511;-70
2023/08/04 12:20:08;;;;;;;1.70;1.30;;;22.20;99.90;;;;;;5095225;28;20466;-70
2023/08/04 12:22:37;;;;;;;1.80;1.00;;;22.20;99.90;;;;;;5094828;28;20566;-70
2023/08/04 12:25:06;;;;;;;2.17;1.27;;;22.10;99.90;;;;;;5094578;28;20441;-70
2023/08/04 12:27:35;;;;;;;1.90;1.00;;;22.10;99.90;;;;;;5094530;28;20454;-70
2023/08/04 12:30:04;;;;;;;2.37;1.27;;;22.00;99.90;;;;;;5094468;28;20440;-70
2023/08/04 12:32:33;;;;;;;3.20;1.20;;;21.90;99.90;;;;;;5094604;28;20543;-70
2023/08/04 12:35:02;;;;;;;2.20;1.33;;;21.90;99.90;;;;;;5094489;28;20935;-70
2023/08/04 12:37:30;;;;;;;2.97;1.23;;;21.80;99.90;;;;;;5094881;28;20791;-70
2023/08/04 12:39:59;;;;;;;1.67;1.03;;;21.80;99.90;;;;;;5092861;28;20462;-70
2023/08/04 12:42:27;;;;;;;1.70;1.00;;;21.70;99.90;;;;;;5094153;28;20460;-69
2023/08/04 12:44:55;;;;;;;1.40;0.87;;;21.60;99.90;;;;;;5094184;28;20527;-70
2023/08/04 12:47:23;;;;;;;2.70;1.00;;;21.60;99.90;;;;;;5094078;28;20438;-69
2023/08/04 12:49:52;;;;;;;1.93;1.20;;;21.60;99.90;;;;;;5094194;28;20494;-70
2023/08/04 12:52:21;;;;;;;2.43;1.33;;;21.50;99.90;;;;;;5093932;28;20586;-70
2023/08/04 12:54:49;;;;;;;1.70;1.13;;;21.50;99.90;;;;;;5092672;28;20834;-69
2023/08/04 12:57:17;;;;;;;1.53;1.30;;;21.60;99.90;;;;;;5092658;28;20440;-70